Time;durP1;ratioP1;P1;durP2;ratioP2;P2;SDS_P1;SDS_P2;PMS_P1;PMS_P2;Temp;Humidity;BMP_temperature;BMP_pressure;BME280_temperature;BME280_humidity;BME280_pressure;Samples;Min_cycle;Max_cycle;Signal;HPM_P1;HPM_P2
2022/09/19 00:00:33;;;;;;;;;0.33;0.33;;;;;;;;5097604;27;45318;-75
2022/09/19 00:02:58;;;;;;;;;1.00;1.00;;;;;;;;5097862;27;45335;-74
2022/09/19 00:05:23;;;;;;;;;2.00;0.67;;;;;;;;5097524;27;45311;-75
2022/09/19 00:07:48;;;;;;;;;2.00;2.00;;;;;;;;5097123;27;45324;-74
2022/09/19 00:10:13;;;;;;;;;1.00;1.00;;;;;;;;5097505;27;45226;-74
2022/09/19 00:12:39;;;;;;;;;1.33;1.33;;;;;;;;5097359;27;45470;-75
2022/09/19 00:15:05;;;;;;;;;2.00;2.00;;;;;;;;5097554;27;45339;-74
2022/09/19 00:17:30;;;;;;;;;1.00;1.00;;;;;;;;5097383;27;45325;-74
2022/09/19 00:19:55;;;;;;;;;2.00;2.00;;;;;;;;5097519;27;45362;-74
2022/09/19 00:22:20;;;;;;;;;2.33;1.00;;;;;;;;5097305;27;45354;-75
2022/09/19 00:24:45;;;;;;;;;1.00;1.00;;;;;;;;5097353;27;45414;-74
2022/09/19 00:27:12;;;;;;;;;1.00;1.00;;;;;;;;5097136;27;46324;-75
2022/09/19 00:29:38;;;;;;;;;0.67;0.33;;;;;;;;5097145;27;45326;-74
2022/09/19 00:32:12;;;;;;;;;1.00;1.00;;;;;;;;5097178;27;45304;-73
2022/09/19 00:34:39;;;;;;;;;2.00;2.00;;;;;;;;5097174;27;45376;-74
2022/09/19 00:37:04;;;;;;;;;2.67;1.00;;;;;;;;5096350;27;47058;-75
2022/09/19 00:39:29;;;;;;;;;1.00;1.00;;;;;;;;5097229;27;45337;-74
2022/09/19 00:41:55;;;;;;;;;1.00;1.00;;;;;;;;5096994;27;45367;-74
2022/09/19 00:44:23;;;;;;;;;1.00;1.00;;;;;;;;5097444;27;45332;-74
2022/09/19 00:46:50;;;;;;;;;4.00;2.00;;;;;;;;5097053;27;47068;-75
2022/09/19 00:49:19;;;;;;;;;1.00;1.00;;;;;;;;5096605;27;45426;-75
2022/09/19 00:51:47;;;;;;;;;1.00;1.00;;;;;;;;5096678;27;45637;-75
2022/09/19 00:54:14;;;;;;;;;1.00;1.00;;;;;;;;5096926;27;45331;-75
2022/09/19 00:56:41;;;;;;;;;1.67;1.67;;;;;;;;5096811;27;45313;-75
2022/09/19 00:59:06;;;;;;;;;2.00;2.00;;;;;;;;5096535;27;45372;-74
2022/09/19 01:01:32;;;;;;;;;0.00;0.00;;;;;;;;5097017;27;45352;-75
2022/09/19 01:03:57;;;;;;;;;1.00;1.00;;;;;;;;5096546;27;45568;-74
2022/09/19 01:06:35;;;;;;;;;1.00;1.00;;;;;;;;5096060;27;46040;-75
2022/09/19 01:09:14;;;;;;;;;1.00;1.00;;;;;;;;5096467;27;45391;-74
2022/09/19 01:11:57;;;;;;;;;1.00;1.00;;;;;;;;5096553;27;45333;-75
2022/09/19 01:15:01;;;;;;;;;0.67;0.67;;;;;;;;5096316;27;45465;-74
2022/09/19 01:17:31;;;;;;;;;1.00;1.00;;;;;;;;5013603;28;47187;-74
2022/09/19 01:19:59;;;;;;;;;1.00;1.00;;;;;;;;5006967;28;45409;-75
2022/09/19 01:22:43;;;;;;;;;2.00;1.00;;;;;;;;5006373;28;45309;-75
2022/09/19 01:25:31;;;;;;;;;2.00;1.00;;;;;;;;5013223;28;45327;-74
2022/09/19 01:28:18;;;;;;;;;1.67;1.67;;;;;;;;5012888;28;46948;-75
2022/09/19 01:31:19;;;;;;;;;1.00;1.00;;;;;;;;5013427;28;45437;-74
2022/09/19 01:33:52;;;;;;;;;1.33;1.00;;;;;;;;4973741;28;45539;-75
2022/09/19 01:36:20;;;;;;;;;1.00;1.00;;;;;;;;4980519;28;45507;-74
2022/09/19 01:38:47;;;;;;;;;1.00;1.00;;;;;;;;4976465;28;46362;-75
2022/09/19 01:41:13;;;;;;;;;1.00;1.00;;;;;;;;4972948;28;45359;-74
2022/09/19 01:43:38;;;;;;;;;1.00;1.00;;;;;;;;4957145;28;45455;-75
2022/09/19 01:46:13;;;;;;;;;1.00;1.00;;;;;;;;4973879;28;46031;-75
2022/09/19 01:48:42;;;;;;;;;2.00;2.00;;;;;;;;4987248;28;46409;-74
2022/09/19 01:51:28;;;;;;;;;1.00;1.00;;;;;;;;5013004;28;45513;-74
2022/09/19 01:54:11;;;;;;;;;1.00;1.00;;;;;;;;5013007;28;45416;-75
2022/09/19 01:56:36;;;;;;;;;1.00;1.00;;;;;;;;5012701;28;45408;-74
2022/09/19 01:59:22;;;;;;;;;1.00;1.00;;;;;;;;5012748;28;45394;-75
2022/09/19 02:01:58;;;;;;;;;1.33;1.33;;;;;;;;5012444;28;46004;-75
2022/09/19 02:04:27;;;;;;;;;0.67;0.67;;;;;;;;5012114;28;45446;-75
2022/09/19 02:07:01;;;;;;;;;1.00;1.00;;;;;;;;5013000;28;45346;-75
2022/09/19 02:09:34;;;;;;;;;1.00;1.00;;;;;;;;5051538;27;46351;-75
2022/09/19 02:12:01;;;;;;;;;2.00;2.00;;;;;;;;5095547;27;45369;-75
2022/09/19 02:14:28;;;;;;;;;0.67;0.67;;;;;;;;5095846;27;45318;-75
2022/09/19 02:17:04;;;;;;;;;1.67;1.67;;;;;;;;5095740;27;45455;-75
2022/09/19 02:19:41;;;;;;;;;1.00;1.00;;;;;;;;5099021;27;46381;-75
2022/09/19 02:22:08;;;;;;;;;2.00;2.00;;;;;;;;5099162;27;45316;-75
2022/09/19 02:24:36;;;;;;;;;1.33;1.33;;;;;;;;5099208;27;45513;-75
2022/09/19 02:27:07;;;;;;;;;0.67;0.67;;;;;;;;5099206;27;45425;-75
2022/09/19 02:29:33;;;;;;;;;1.00;1.00;;;;;;;;5099025;27;46528;-74
2022/09/19 02:32:00;;;;;;;;;1.00;1.00;;;;;;;;5099069;27;45509;-75
2022/09/19 02:34:25;;;;;;;;;1.00;1.00;;;;;;;;5098817;27;45379;-74
2022/09/19 02:36:53;;;;;;;;;1.00;1.00;;;;;;;;5099049;27;45402;-75
2022/09/19 02:39:28;;;;;;;;;1.00;1.00;;;;;;;;5099075;27;45257;-75
2022/09/19 02:42:01;;;;;;;;;1.00;1.00;;;;;;;;5098938;27;45449;-75
2022/09/19 02:44:36;;;;;;;;;1.33;1.00;;;;;;;;5098845;27;45255;-75
2022/09/19 02:47:08;;;;;;;;;1.00;1.00;;;;;;;;5098686;27;45402;-74
2022/09/19 02:49:43;;;;;;;;;2.00;1.00;;;;;;;;5098949;27;46252;-74
2022/09/19 02:52:13;;;;;;;;;1.00;1.00;;;;;;;;5098805;27;45492;-75
2022/09/19 02:54:42;;;;;;;;;2.00;2.00;;;;;;;;5098844;27;45470;-74
2022/09/19 02:57:09;;;;;;;;;1.33;1.33;;;;;;;;5098474;27;45461;-75
2022/09/19 02:59:37;;;;;;;;;1.00;1.00;;;;;;;;5098957;27;45348;-74
2022/09/19 03:02:23;;;;;;;;;1.00;1.00;;;;;;;;5098402;27;45383;-74
2022/09/19 03:04:52;;;;;;;;;2.67;1.00;;;;;;;;5097724;27;45450;-74
2022/09/19 03:07:22;;;;;;;;;1.67;1.00;;;;;;;;5098649;27;45477;-75
2022/09/19 03:10:07;;;;;;;;;2.00;1.00;;;;;;;;5098374;27;46275;-74
2022/09/19 03:12:50;;;;;;;;;2.00;0.33;;;;;;;;5097547;27;45355;-75
2022/09/19 03:15:16;;;;;;;;;0.67;0.67;;;;;;;;5098567;27;45322;-74
2022/09/19 03:17:43;;;;;;;;;1.00;1.00;;;;;;;;5098097;27;45299;-74
2022/09/19 03:20:11;;;;;;;;;1.00;1.00;;;;;;;;5098377;27;46133;-74
2022/09/19 03:22:37;;;;;;;;;1.00;1.00;;;;;;;;5098084;27;45389;-76
2022/09/19 03:25:02;;;;;;;;;2.00;1.00;;;;;;;;5098532;27;45274;-74
2022/09/19 03:27:27;;;;;;;;;2.00;2.00;;;;;;;;5098295;27;45364;-75
2022/09/19 03:29:52;;;;;;;;;3.00;1.67;;;;;;;;5096185;27;46511;-74
2022/09/19 03:32:18;;;;;;;;;1.00;1.00;;;;;;;;5097842;27;45356;-74
2022/09/19 03:34:43;;;;;;;;;1.00;1.00;;;;;;;;5098425;27;45429;-75
2022/09/19 03:37:09;;;;;;;;;1.00;1.00;;;;;;;;5098118;27;45269;-74
2022/09/19 03:39:34;;;;;;;;;3.00;2.00;;;;;;;;5098157;27;45403;-74
2022/09/19 03:42:00;;;;;;;;;1.33;1.33;;;;;;;;5097332;27;45597;-75
2022/09/19 03:44:25;;;;;;;;;3.00;1.00;;;;;;;;5098090;27;45598;-74
2022/09/19 03:46:50;;;;;;;;;1.00;1.00;;;;;;;;5097899;27;45380;-74
2022/09/19 03:49:16;;;;;;;;;1.00;1.00;;;;;;;;5097822;27;47012;-75
2022/09/19 03:51:41;;;;;;;;;2.00;2.00;;;;;;;;5098142;27;45393;-75
2022/09/19 03:54:06;;;;;;;;;1.67;1.00;;;;;;;;5097964;27;45254;-75
2022/09/19 03:56:32;;;;;;;;;2.00;2.00;;;;;;;;5097849;27;45370;-73
2022/09/19 03:58:57;;;;;;;;;1.33;1.33;;;;;;;;5097743;27;47025;-75
2022/09/19 04:01:22;;;;;;;;;1.00;1.00;;;;;;;;5097680;27;45403;-75
2022/09/19 04:03:49;;;;;;;;;1.00;1.00;;;;;;;;5097729;27;45398;-74
2022/09/19 04:06:14;;;;;;;;;2.00;2.00;;;;;;;;5097555;27;45607;-75
2022/09/19 04:08:40;;;;;;;;;1.33;1.33;;;;;;;;5097520;27;46089;-75
2022/09/19 04:11:05;;;;;;;;;1.33;1.33;;;;;;;;5097603;27;45250;-74
2022/09/19 04:13:33;;;;;;;;;1.00;1.00;;;;;;;;5097524;27;45227;-75
2022/09/19 04:16:00;;;;;;;;;1.67;1.00;;;;;;;;5097212;27;45471;-74
2022/09/19 04:18:25;;;;;;;;;1.00;1.00;;;;;;;;5097352;27;46214;-75
2022/09/19 04:20:51;;;;;;;;;3.00;1.00;;;;;;;;5097354;27;45371;-74
2022/09/19 04:23:16;;;;;;;;;1.00;1.00;;;;;;;;5097487;27;45443;-74
2022/09/19 04:25:41;;;;;;;;;2.33;2.00;;;;;;;;5097426;27;45421;-75
2022/09/19 04:28:09;;;;;;;;;3.00;1.00;;;;;;;;5097169;27;45368;-74
2022/09/19 04:30:37;;;;;;;;;2.00;1.67;;;;;;;;5096739;27;45461;-75
2022/09/19 04:33:03;;;;;;;;;1.67;1.67;;;;;;;;5096735;27;45481;-74
2022/09/19 04:35:35;;;;;;;;;2.00;0.33;;;;;;;;5097044;27;45314;-74
2022/09/19 04:38:01;;;;;;;;;1.00;1.00;;;;;;;;5096371;27;46319;-74
2022/09/19 04:40:28;;;;;;;;;1.00;1.00;;;;;;;;5096389;27;45434;-74
2022/09/19 04:42:53;;;;;;;;;2.00;2.00;;;;;;;;5097033;27;45759;-74
2022/09/19 04:45:20;;;;;;;;;1.00;1.00;;;;;;;;5096461;27;45371;-74
2022/09/19 04:47:46;;;;;;;;;1.00;1.00;;;;;;;;5097115;27;47194;-75
2022/09/19 04:50:12;;;;;;;;;1.33;1.00;;;;;;;;5096852;27;45473;-75
2022/09/19 04:52:38;;;;;;;;;1.00;1.00;;;;;;;;5096797;27;45534;-75
2022/09/19 04:55:04;;;;;;;;;1.00;1.00;;;;;;;;5096947;27;45337;-75
2022/09/19 04:57:29;;;;;;;;;1.00;1.00;;;;;;;;5096353;27;45424;-73
2022/09/19 04:59:57;;;;;;;;;2.00;2.00;;;;;;;;5097067;27;45448;-75
2022/09/19 05:02:22;;;;;;;;;2.67;2.00;;;;;;;;5096687;27;45312;-75
2022/09/19 05:04:47;;;;;;;;;1.00;1.00;;;;;;;;5096718;27;45292;-74
2022/09/19 05:07:13;;;;;;;;;1.00;1.00;;;;;;;;5096689;27;45927;-73
2022/09/19 05:09:39;;;;;;;;;1.33;1.00;;;;;;;;5096562;27;45351;-74
2022/09/19 05:12:05;;;;;;;;;2.00;2.00;;;;;;;;5096486;27;45337;-75
2022/09/19 05:14:30;;;;;;;;;1.00;1.00;;;;;;;;5096408;27;45436;-75
2022/09/19 05:16:56;;;;;;;;;2.00;1.00;;;;;;;;5096610;27;46867;-74
2022/09/19 05:19:22;;;;;;;;;1.00;1.00;;;;;;;;5096719;27;45492;-75
2022/09/19 05:21:48;;;;;;;;;2.67;1.67;;;;;;;;5096677;27;45279;-77
2022/09/19 05:24:14;;;;;;;;;1.00;1.00;;;;;;;;5096756;27;45555;-75
2022/09/19 05:26:40;;;;;;;;;0.67;0.67;;;;;;;;5095739;27;46169;-77
2022/09/19 05:29:05;;;;;;;;;1.67;1.00;;;;;;;;5096441;27;45335;-80
2022/09/19 05:31:30;;;;;;;;;2.00;1.00;;;;;;;;5096761;27;45344;-75
2022/09/19 05:33:56;;;;;;;;;1.00;1.00;;;;;;;;5096294;27;45290;-78
2022/09/19 05:36:21;;;;;;;;;3.00;1.00;;;;;;;;5096466;27;45988;-76
2022/09/19 05:38:46;;;;;;;;;1.00;1.00;;;;;;;;5096315;27;45519;-75
2022/09/19 05:41:12;;;;;;;;;1.33;1.00;;;;;;;;5095889;27;45396;-79
2022/09/19 05:43:37;;;;;;;;;1.00;1.00;;;;;;;;5095839;27;45401;-76
2022/09/19 05:46:03;;;;;;;;;2.00;2.00;;;;;;;;5095828;27;47289;-74
2022/09/19 05:48:29;;;;;;;;;2.67;1.00;;;;;;;;5096342;27;45339;-76
2022/09/19 05:50:55;;;;;;;;;1.33;0.00;;;;;;;;5097244;27;45567;-77
2022/09/19 05:56:04;;;;;;;;;2.00;1.00;;;;;;;;5099853;27;45380;-79
2022/09/19 05:58:30;;;;;;;;;2.00;1.00;;;;;;;;5100015;27;45378;-76
2022/09/19 06:00:56;;;;;;;;;2.00;1.00;;;;;;;;5100056;27;45377;-77
2022/09/19 06:03:21;;;;;;;;;1.67;1.00;;;;;;;;5099918;27;45279;-77
2022/09/19 06:05:51;;;;;;;;;1.00;1.00;;;;;;;;5099081;27;47113;-73
2022/09/19 06:08:18;;;;;;;;;2.00;2.00;;;;;;;;5099580;27;45457;-75
2022/09/19 06:10:44;;;;;;;;;3.00;1.00;;;;;;;;5098938;27;45288;-74
2022/09/19 06:13:14;;;;;;;;;1.00;1.00;;;;;;;;5099335;27;45425;-74
2022/09/19 06:15:39;;;;;;;;;3.00;1.00;;;;;;;;5099106;27;46286;-74
2022/09/19 06:18:04;;;;;;;;;1.00;1.00;;;;;;;;5099106;27;45363;-75
2022/09/19 06:20:30;;;;;;;;;4.00;2.00;;;;;;;;5099585;27;45369;-75
2022/09/19 06:22:56;;;;;;;;;1.33;1.33;;;;;;;;5099397;27;45436;-74
2022/09/19 06:25:21;;;;;;;;;3.67;1.00;;;;;;;;5099392;27;46025;-74
2022/09/19 06:27:57;;;;;;;;;1.00;1.00;;;;;;;;5099017;27;45304;-74
2022/09/19 06:30:22;;;;;;;;;1.33;1.00;;;;;;;;5099293;27;45314;-75
2022/09/19 06:32:47;;;;;;;;;2.00;2.00;;;;;;;;5099278;27;45475;-74
2022/09/19 06:35:13;;;;;;;;;2.00;2.00;;;;;;;;5098788;27;46449;-77
2022/09/19 06:37:38;;;;;;;;;1.67;1.67;;;;;;;;5099137;27;45341;-74
2022/09/19 06:40:03;;;;;;;;;3.00;2.00;;;;;;;;5098967;27;45429;-78
2022/09/19 06:42:29;;;;;;;;;0.00;0.00;;;;;;;;5099035;27;45525;-79
2022/09/19 06:44:54;;;;;;;;;0.33;0.33;;;;;;;;5099266;27;45899;-79
2022/09/19 06:47:19;;;;;;;;;1.00;1.00;;;;;;;;5097905;27;45353;-80
2022/09/19 06:49:44;;;;;;;;;1.00;1.00;;;;;;;;5099286;27;45547;-80
2022/09/19 06:52:09;;;;;;;;;1.33;1.33;;;;;;;;5099022;27;45225;-79
2022/09/19 06:54:35;;;;;;;;;1.00;1.00;;;;;;;;5098430;27;45366;-79
2022/09/19 06:57:00;;;;;;;;;0.33;0.33;;;;;;;;5099128;27;45362;-79
2022/09/19 06:59:25;;;;;;;;;4.00;1.67;;;;;;;;5099130;27;45341;-78
2022/09/19 07:01:50;;;;;;;;;1.67;1.00;;;;;;;;5098835;27;45485;-79
2022/09/19 07:04:16;;;;;;;;;2.00;2.00;;;;;;;;5098459;27;45965;-79
2022/09/19 07:06:41;;;;;;;;;3.00;1.33;;;;;;;;5098995;27;45317;-80
2022/09/19 07:09:07;;;;;;;;;2.33;1.33;;;;;;;;5098515;27;45280;-79
2022/09/19 07:11:33;;;;;;;;;2.00;2.00;;;;;;;;5098965;27;45294;-79
2022/09/19 07:13:58;;;;;;;;;1.00;1.00;;;;;;;;5098578;27;47261;-79
2022/09/19 07:16:23;;;;;;;;;2.00;2.00;;;;;;;;5098296;27;45445;-79
2022/09/19 07:18:49;;;;;;;;;2.00;2.00;;;;;;;;5098989;27;45351;-78
2022/09/19 07:21:14;;;;;;;;;3.00;2.00;;;;;;;;5098421;27;45794;-78
2022/09/19 07:23:39;;;;;;;;;2.00;2.00;;;;;;;;5098160;27;47169;-79
2022/09/19 07:26:04;;;;;;;;;1.67;1.67;;;;;;;;5098179;27;45316;-79
2022/09/19 07:28:30;;;;;;;;;1.00;1.00;;;;;;;;5098592;27;45434;-80
2022/09/19 07:30:57;;;;;;;;;2.00;0.00;;;;;;;;5098616;27;45384;-79
2022/09/19 07:33:23;;;;;;;;;1.00;1.00;;;;;;;;5098168;27;47046;-79
2022/09/19 07:35:50;;;;;;;;;2.67;2.00;;;;;;;;5097012;27;45483;-79
2022/09/19 07:38:17;;;;;;;;;1.00;1.00;;;;;;;;5098160;27;45410;-79
2022/09/19 07:40:42;;;;;;;;;1.33;1.00;;;;;;;;5098046;27;45504;-79
2022/09/19 07:43:13;;;;;;;;;1.33;1.33;;;;;;;;5098076;27;46108;-80
2022/09/19 07:45:41;;;;;;;;;1.33;1.00;;;;;;;;5097912;27;45436;-79
2022/09/19 07:48:06;;;;;;;;;2.33;1.33;;;;;;;;5098189;27;45288;-79
2022/09/19 07:50:31;;;;;;;;;1.67;1.67;;;;;;;;5098062;27;45204;-78
2022/09/19 07:53:07;;;;;;;;;3.00;1.67;;;;;;;;5097873;27;45397;-79
2022/09/19 07:55:33;;;;;;;;;3.00;2.00;;;;;;;;5097939;27;45427;-79
2022/09/19 07:57:59;;;;;;;;;2.33;1.00;;;;;;;;5098251;27;45350;-79
2022/09/19 08:00:25;;;;;;;;;1.67;1.33;;;;;;;;5098255;27;45387;-79
2022/09/19 08:02:54;;;;;;;;;2.00;2.00;;;;;;;;5097838;27;45442;-79
2022/09/19 08:05:19;;;;;;;;;1.67;1.33;;;;;;;;5097403;27;45350;-79
2022/09/19 08:07:45;;;;;;;;;3.00;2.00;;;;;;;;5097593;27;45650;-79
2022/09/19 08:10:11;;;;;;;;;1.00;1.00;;;;;;;;5097920;27;45358;-79
2022/09/19 08:12:37;;;;;;;;;1.00;1.00;;;;;;;;5097549;27;46100;-79
2022/09/19 08:15:02;;;;;;;;;3.67;2.67;;;;;;;;5096831;27;45755;-79
2022/09/19 08:17:27;;;;;;;;;2.00;2.00;;;;;;;;5097625;27;45537;-79
2022/09/19 08:19:54;;;;;;;;;1.33;1.33;;;;;;;;5097619;27;45600;-79
2022/09/19 08:22:19;;;;;;;;;1.00;1.00;;;;;;;;5097219;27;46155;-79
2022/09/19 08:24:44;;;;;;;;;2.67;2.33;;;;;;;;5097354;27;45283;-79
2022/09/19 08:27:10;;;;;;;;;3.33;1.33;;;;;;;;5097631;27;45236;-78
2022/09/19 08:29:38;;;;;;;;;5.00;1.00;;;;;;;;5097173;27;45312;-79
2022/09/19 08:32:04;;;;;;;;;2.67;2.67;;;;;;;;5097143;27;47167;-79
2022/09/19 08:34:29;;;;;;;;;1.67;1.67;;;;;;;;5097304;27;45452;-79
2022/09/19 08:36:58;;;;;;;;;4.00;1.67;;;;;;;;5096898;27;45374;-79
2022/09/19 08:39:24;;;;;;;;;2.67;2.00;;;;;;;;5097459;27;45437;-79
2022/09/19 08:41:58;;;;;;;;;2.00;2.00;;;;;;;;5097287;27;45469;-78
2022/09/19 08:44:42;;;;;;;;;3.00;3.00;;;;;;;;5097348;27;45409;-79
2022/09/19 08:47:12;;;;;;;;;2.00;2.00;;;;;;;;5096933;27;45439;-78
2022/09/19 08:49:43;;;;;;;;;1.33;1.33;;;;;;;;5096806;27;45401;-78
2022/09/19 08:52:12;;;;;;;;;1.00;0.67;;;;;;;;5097079;27;46232;-79
2022/09/19 08:54:45;;;;;;;;;2.00;2.00;;;;;;;;5096909;27;45390;-78
2022/09/19 08:57:16;;;;;;;;;1.00;1.00;;;;;;;;5097007;27;45248;-79
2022/09/19 08:59:43;;;;;;;;;1.33;1.33;;;;;;;;5097213;27;45486;-79
2022/09/19 09:02:23;;;;;;;;;2.00;2.00;;;;;;;;5078377;27;46690;-78
2022/09/19 09:04:48;;;;;;;;;4.00;3.00;;;;;;;;5083694;27;45405;-79
2022/09/19 09:07:32;;;;;;;;;1.67;1.33;;;;;;;;5096830;27;45436;-78
2022/09/19 09:09:57;;;;;;;;;2.00;2.00;;;;;;;;5084397;27;45530;-79
2022/09/19 09:12:32;;;;;;;;;0.00;0.00;;;;;;;;5096933;27;46257;-78
2022/09/19 09:15:17;;;;;;;;;1.00;1.00;;;;;;;;5083672;27;45449;-79
2022/09/19 09:17:58;;;;;;;;;3.33;1.33;;;;;;;;5095949;27;45361;-79
2022/09/19 09:20:29;;;;;;;;;3.33;3.00;;;;;;;;5095748;27;45529;-79
2022/09/19 09:23:15;;;;;;;;;2.00;2.00;;;;;;;;5096463;27;46027;-78
2022/09/19 09:25:43;;;;;;;;;3.00;2.00;;;;;;;;5096389;27;45330;-79
2022/09/19 09:28:15;;;;;;;;;3.00;2.00;;;;;;;;5096827;27;45379;-79
2022/09/19 09:30:44;;;;;;;;;1.00;1.00;;;;;;;;5096679;27;45437;-78
2022/09/19 09:33:30;;;;;;;;;2.00;2.00;;;;;;;;5095904;27;46297;-78
2022/09/19 09:36:08;;;;;;;;;1.33;1.00;;;;;;;;5083654;27;45537;-79
2022/09/19 09:38:45;;;;;;;;;2.67;1.00;;;;;;;;5096465;27;45455;-79
2022/09/19 09:44:14;;;;;;;;;2.00;2.00;;;;;;;;5096253;27;45811;-78
2022/09/19 09:47:01;;;;;;;;;0.33;0.33;;;;;;;;5095996;27;45507;-78
2022/09/19 09:49:29;;;;;;;;;1.00;0.00;;;;;;;;5082698;27;45317;-79
2022/09/19 09:51:54;;;;;;;;;3.00;1.33;;;;;;;;5096275;27;45451;-78
2022/09/19 09:57:32;;;;;;;;;1.00;1.00;;;;;;;;5095879;27;45336;-78
2022/09/19 10:05:44;;;;;;;;;2.00;2.00;;;;;;;;5095546;27;45687;-79
2022/09/19 10:08:27;;;;;;;;;0.33;0.33;;;;;;;;5077587;27;45313;-78
2022/09/19 10:10:57;;;;;;;;;2.00;1.67;;;;;;;;5096064;27;45358;-78
2022/09/19 10:13:27;;;;;;;;;1.67;1.67;;;;;;;;5095982;27;45552;-78
2022/09/19 10:15:55;;;;;;;;;1.67;1.33;;;;;;;;5095529;27;46399;-78
2022/09/19 10:18:23;;;;;;;;;0.33;0.33;;;;;;;;5095622;27;45299;-79
2022/09/19 10:20:51;;;;;;;;;2.67;1.00;;;;;;;;5095899;27;45346;-77
2022/09/19 10:23:25;;;;;;;;;1.00;1.00;;;;;;;;5095644;27;45477;-78
2022/09/19 10:25:58;;;;;;;;;1.33;1.33;;;;;;;;5095400;27;46492;-77
2022/09/19 10:28:25;;;;;;;;;1.00;1.00;;;;;;;;5095345;27;45374;-78
2022/09/19 10:30:58;;;;;;;;;3.33;1.00;;;;;;;;5095706;27;45358;-78
2022/09/19 10:33:38;;;;;;;;;1.67;1.67;;;;;;;;5095524;27;45264;-78
2022/09/19 10:36:06;;;;;;;;;1.00;1.00;;;;;;;;5095354;27;47260;-78
2022/09/19 10:38:37;;;;;;;;;0.33;0.33;;;;;;;;5096442;27;45526;-76
2022/09/19 10:41:02;;;;;;;;;1.67;0.67;;;;;;;;5099548;27;45417;-78
2022/09/19 10:43:33;;;;;;;;;4.33;2.00;;;;;;;;5099355;27;45275;-78
2022/09/19 10:46:06;;;;;;;;;1.00;1.00;;;;;;;;5084656;27;47298;-78
2022/09/19 10:48:32;;;;;;;;;2.00;2.00;;;;;;;;5099184;27;45351;-78
2022/09/19 10:51:02;;;;;;;;;3.33;1.67;;;;;;;;5098807;27;45476;-79
2022/09/19 10:53:30;;;;;;;;;0.00;0.00;;;;;;;;5098610;27;45679;-77
2022/09/19 10:55:58;;;;;;;;;1.00;1.00;;;;;;;;5098588;27;46154;-77
2022/09/19 10:58:28;;;;;;;;;1.00;1.00;;;;;;;;5098884;27;45470;-78
2022/09/19 11:00:55;;;;;;;;;2.00;2.00;;;;;;;;5098884;27;45362;-77
2022/09/19 11:03:23;;;;;;;;;2.00;0.67;;;;;;;;5098735;27;45361;-78
2022/09/19 11:06:01;;;;;;;;;2.00;2.00;;;;;;;;5098122;27;46095;-78
2022/09/19 11:08:28;;;;;;;;;2.00;1.00;;;;;;;;5098727;27;45754;-78
2022/09/19 11:10:54;;;;;;;;;1.00;1.00;;;;;;;;5098752;27;45370;-78
2022/09/19 11:13:22;;;;;;;;;0.33;0.33;;;;;;;;5098786;27;45476;-78
2022/09/19 11:16:06;;;;;;;;;1.00;1.00;;;;;;;;5098190;27;46112;-78
2022/09/19 11:18:49;;;;;;;;;2.00;2.00;;;;;;;;5086610;27;45352;-77
2022/09/19 11:21:14;;;;;;;;;1.00;1.00;;;;;;;;5098204;27;45434;-78
2022/09/19 11:23:42;;;;;;;;;1.00;1.00;;;;;;;;5098835;27;45449;-78
2022/09/19 11:26:13;;;;;;;;;0.00;0.00;;;;;;;;5098244;27;46064;-78
2022/09/19 11:28:43;;;;;;;;;1.67;1.67;;;;;;;;5098583;27;45419;-78
2022/09/19 11:31:26;;;;;;;;;1.67;1.00;;;;;;;;5098350;27;45307;-78
2022/09/19 11:33:55;;;;;;;;;2.00;2.00;;;;;;;;5098404;27;45232;-78
2022/09/19 11:36:30;;;;;;;;;2.00;0.33;;;;;;;;5097896;27;46347;-78
2022/09/19 11:39:03;;;;;;;;;1.00;0.67;;;;;;;;5098181;27;45463;-78
2022/09/19 11:41:34;;;;;;;;;2.00;0.67;;;;;;;;5098408;27;45259;-78
2022/09/19 11:44:15;;;;;;;;;1.00;1.00;;;;;;;;5097732;27;45418;-77
2022/09/19 11:46:41;;;;;;;;;2.00;2.00;;;;;;;;5097733;27;46910;-78
2022/09/19 11:49:26;;;;;;;;;5.00;1.00;;;;;;;;5097805;27;45517;-78
2022/09/19 11:51:51;;;;;;;;;0.67;0.67;;;;;;;;5097409;27;45537;-78
2022/09/19 11:54:25;;;;;;;;;0.00;0.00;;;;;;;;5097686;27;45250;-79
2022/09/19 11:57:02;;;;;;;;;1.00;1.00;;;;;;;;5098073;27;46996;-77
2022/09/19 11:59:33;;;;;;;;;2.00;2.00;;;;;;;;5097012;27;45462;-78
2022/09/19 12:02:09;;;;;;;;;1.00;1.00;;;;;;;;5098055;27;45371;-78
2022/09/19 12:04:34;;;;;;;;;1.00;1.00;;;;;;;;5097523;27;45610;-78
2022/09/19 12:06:59;;;;;;;;;1.33;1.33;;;;;;;;5097662;27;45496;-78
2022/09/19 12:09:30;;;;;;;;;1.00;1.00;;;;;;;;5097717;27;45273;-78
2022/09/19 12:12:02;;;;;;;;;2.00;1.00;;;;;;;;5098040;27;45475;-78
2022/09/19 12:14:31;;;;;;;;;2.00;0.33;;;;;;;;5097225;27;45360;-78
2022/09/19 12:17:12;;;;;;;;;1.00;0.00;;;;;;;;5097960;27;45905;-77
2022/09/19 12:19:41;;;;;;;;;0.33;0.33;;;;;;;;5097336;27;45349;-78
2022/09/19 12:22:27;;;;;;;;;1.00;1.00;;;;;;;;5097787;27;45358;-78
2022/09/19 12:24:58;;;;;;;;;1.00;1.00;;;;;;;;5096865;27;45234;-78
2022/09/19 12:27:23;;;;;;;;;0.33;0.33;;;;;;;;5096937;27;46351;-78
2022/09/19 12:29:53;;;;;;;;;1.00;1.00;;;;;;;;5097372;27;45300;-77
2022/09/19 12:32:18;;;;;;;;;1.00;1.00;;;;;;;;5097778;27;45383;-78
2022/09/19 12:34:50;;;;;;;;;1.00;1.00;;;;;;;;5097604;27;45328;-78
2022/09/19 12:37:31;;;;;;;;;3.00;1.00;;;;;;;;5097209;27;46341;-78
2022/09/19 12:40:04;;;;;;;;;3.67;2.00;;;;;;;;5097245;27;45591;-78
2022/09/19 12:42:44;;;;;;;;;1.00;1.00;;;;;;;;5096963;27;45342;-77
2022/09/19 12:45:15;;;;;;;;;0.00;0.00;;;;;;;;5097115;27;45441;-78
2022/09/19 12:48:00;;;;;;;;;1.00;1.00;;;;;;;;5097032;27;47033;-77
2022/09/19 12:50:32;;;;;;;;;0.00;0.00;;;;;;;;5096633;27;45417;-78
2022/09/19 12:53:00;;;;;;;;;2.00;1.00;;;;;;;;5096885;27;45272;-78
2022/09/19 12:55:33;;;;;;;;;1.67;1.67;;;;;;;;5096393;27;45298;-77
2022/09/19 12:58:20;;;;;;;;;0.00;0.00;;;;;;;;5096450;27;47001;-77
2022/09/19 13:00:45;;;;;;;;;1.00;1.00;;;;;;;;5096713;27;45871;-77
2022/09/19 13:03:23;;;;;;;;;0.00;0.00;;;;;;;;5096997;27;45465;-78
2022/09/19 13:05:55;;;;;;;;;1.00;1.00;;;;;;;;5096632;27;45493;-77
2022/09/19 13:08:23;;;;;;;;;0.33;0.33;;;;;;;;5096632;27;46379;-78
2022/09/19 13:10:54;;;;;;;;;3.00;0.00;;;;;;;;5096443;27;45527;-77
2022/09/19 13:13:20;;;;;;;;;1.00;0.00;;;;;;;;5097042;27;45354;-77
2022/09/19 13:16:03;;;;;;;;;2.00;2.00;;;;;;;;5096738;27;45548;-76
2022/09/19 13:24:12;;;;;;;;;1.00;1.00;;;;;;;;5096744;27;45335;-77
2022/09/19 13:26:38;;;;;;;;;1.00;1.00;;;;;;;;5096018;27;45363;-78
2022/09/19 13:29:26;;;;;;;;;1.00;1.00;;;;;;;;5096477;27;46027;-77
2022/09/19 13:31:55;;;;;;;;;0.00;0.00;;;;;;;;5096244;27;45493;-77
2022/09/19 13:34:33;;;;;;;;;0.00;0.00;;;;;;;;5096469;27;45237;-77
2022/09/19 13:36:59;;;;;;;;;0.00;0.00;;;;;;;;5096024;27;45428;-77
2022/09/19 13:39:45;;;;;;;;;0.00;0.00;;;;;;;;5095629;27;46122;-77
2022/09/19 13:42:12;;;;;;;;;3.00;0.00;;;;;;;;5096326;27;45375;-76
2022/09/19 13:44:45;;;;;;;;;1.67;1.67;;;;;;;;5096400;27;45367;-76
2022/09/19 13:47:22;;;;;;;;;0.67;0.00;;;;;;;;5096161;27;45345;-76
2022/09/19 13:49:49;;;;;;;;;1.00;1.00;;;;;;;;5096286;27;46210;-77
2022/09/19 13:52:16;;;;;;;;;1.00;1.00;;;;;;;;5096052;27;45221;-77
2022/09/19 13:54:50;;;;;;;;;0.00;0.00;;;;;;;;5096024;27;45405;-77
2022/09/19 13:57:16;;;;;;;;;1.00;1.00;;;;;;;;5095937;27;45266;-76
2022/09/19 13:59:50;;;;;;;;;1.67;0.00;;;;;;;;5096237;27;46137;-76
2022/09/19 14:02:15;;;;;;;;;0.00;0.00;;;;;;;;5096152;27;45457;-76
2022/09/19 14:04:53;;;;;;;;;0.00;0.00;;;;;;;;5096086;27;45448;-78
2022/09/19 14:07:30;;;;;;;;;0.00;0.00;;;;;;;;5096122;27;45462;-77
2022/09/19 14:10:14;;;;;;;;;1.00;1.00;;;;;;;;5083097;27;46086;-77
2022/09/19 14:12:46;;;;;;;;;0.00;0.00;;;;;;;;5095287;27;45445;-77
2022/09/19 14:15:31;;;;;;;;;2.00;2.00;;;;;;;;5099347;27;45308;-76
2022/09/19 14:18:02;;;;;;;;;0.00;0.00;;;;;;;;5099188;27;45271;-77
2022/09/19 14:20:46;;;;;;;;;3.00;0.00;;;;;;;;5099490;27;46389;-76
2022/09/19 14:23:12;;;;;;;;;1.00;1.00;;;;;;;;5098683;27;45371;-77
2022/09/19 14:25:38;;;;;;;;;1.00;1.00;;;;;;;;5099531;27;45414;-76
2022/09/19 14:28:03;;;;;;;;;0.33;0.33;;;;;;;;5099449;27;45556;-76
2022/09/19 14:30:40;;;;;;;;;2.00;0.00;;;;;;;;5080375;27;46910;-76
2022/09/19 14:33:24;;;;;;;;;1.00;1.00;;;;;;;;5098872;27;45390;-77
2022/09/19 14:36:15;;;;;;;;;1.67;0.67;;;;;;;;5085727;27;45355;-77
2022/09/19 14:38:55;;;;;;;;;1.00;0.33;;;;;;;;5035419;28;45366;-77
2022/09/19 14:41:20;;;;;;;;;0.00;0.00;;;;;;;;5035979;28;46253;-77
2022/09/19 14:44:16;;;;;;;;;0.33;0.33;;;;;;;;5035836;28;45489;-77
2022/09/19 14:47:00;;;;;;;;;1.00;1.00;;;;;;;;5036162;28;45280;-76
2022/09/19 14:49:38;;;;;;;;;0.00;0.00;;;;;;;;5022866;28;45346;-77
2022/09/19 14:52:14;;;;;;;;;0.33;0.00;;;;;;;;5035500;28;45436;-77
2022/09/19 14:55:02;;;;;;;;;1.00;1.00;;;;;;;;5035492;28;45550;-77
2022/09/19 14:57:27;;;;;;;;;0.00;0.00;;;;;;;;5027745;28;45485;-76
2022/09/19 14:59:52;;;;;;;;;0.00;0.00;;;;;;;;5035873;28;45356;-76
2022/09/19 15:02:31;;;;;;;;;0.67;0.67;;;;;;;;5035665;28;46127;-77
2022/09/19 15:05:15;;;;;;;;;1.00;1.00;;;;;;;;5035708;28;45496;-77
2022/09/19 15:07:40;;;;;;;;;0.00;0.00;;;;;;;;5035398;28;45342;-76
2022/09/19 15:10:33;;;;;;;;;1.00;1.00;;;;;;;;5035817;28;45397;-77
2022/09/19 15:13:33;;;;;;;;;1.33;1.33;;;;;;;;5033349;28;46263;-77
2022/09/19 15:16:01;;;;;;;;;0.00;0.00;;;;;;;;4989526;28;45454;-76
2022/09/19 15:18:32;;;;;;;;;0.00;0.00;;;;;;;;4995904;28;45641;-76
2022/09/19 15:21:00;;;;;;;;;1.00;1.00;;;;;;;;4995445;28;45394;-76